createdAt,value
2019-05-02T00:03:46.467Z,10.99
2019-05-02T00:08:51.870Z,10.95
2019-05-02T00:13:57.598Z,10.90
2019-05-02T00:19:03.050Z,10.85
2019-05-02T00:24:10.103Z,10.78
2019-05-02T00:29:19.032Z,10.71
2019-05-02T00:34:23.053Z,10.66
2019-05-02T00:39:28.473Z,10.61
2019-05-02T00:44:33.908Z,10.53
2019-05-02T00:49:39.514Z,10.49
2019-05-02T00:54:44.973Z,10.45
2019-05-02T00:59:50.387Z,10.39
2019-05-02T01:04:59.231Z,10.34
2019-05-02T01:10:03.268Z,10.28
2019-05-02T01:15:09.749Z,10.20
2019-05-02T01:20:15.261Z,10.11
2019-05-02T01:25:20.669Z,10.03
2019-05-02T01:30:44.779Z,9.96
2019-05-02T01:36:15.105Z,9.88
2019-05-02T01:41:23.922Z,9.79
2019-05-02T01:46:27.899Z,9.71
2019-05-02T01:51:36.458Z,9.66
2019-05-02T01:56:40.802Z,9.60
2019-05-02T02:01:47.202Z,9.53
2019-05-02T02:06:52.653Z,9.49
2019-05-02T02:11:58.167Z,9.45
2019-05-02T02:17:04.917Z,9.44
2019-05-02T02:22:39.263Z,9.42
2019-05-02T02:27:45.654Z,9.40
2019-05-02T02:32:51.698Z,9.39
2019-05-02T02:38:03.775Z,9.42
2019-05-02T02:43:30.365Z,9.52
2019-05-02T02:48:16.464Z,9.65
2019-05-02T02:53:31.309Z,9.81
2019-05-02T02:58:45.859Z,9.94
2019-05-02T03:03:44.015Z,10.09
2019-05-02T03:08:49.489Z,10.27
2019-05-02T03:14:07.586Z,10.45
2019-05-02T03:19:14.767Z,10.59
2019-05-02T03:24:16.164Z,10.75
2019-05-02T03:29:21.652Z,10.92
2019-05-02T03:34:44.890Z,11.06
2019-05-02T03:39:34.515Z,11.20
2019-05-02T03:44:40.044Z,11.32
2019-05-02T03:49:48.706Z,11.44
2019-05-02T03:54:52.874Z,11.55
2019-05-02T03:59:58.402Z,11.63
2019-05-02T04:05:04.026Z,11.73
2019-05-02T04:10:13.337Z,11.79
2019-05-02T04:15:16.795Z,11.86
2019-05-02T04:20:22.361Z,11.92
2019-05-02T04:25:33.413Z,11.98
2019-05-02T04:30:34.915Z,12.06
2019-05-02T04:35:40.412Z,12.13
2019-05-02T04:40:48.918Z,12.20
2019-05-02T04:45:57.409Z,12.27
2019-05-02T04:51:10.155Z,12.34
2019-05-02T04:56:10.583Z,12.40
2019-05-02T05:01:14.914Z,12.47
2019-05-02T05:06:20.304Z,12.57
2019-05-02T05:11:27.432Z,12.67
2019-05-02T05:16:32.996Z,12.74
2019-05-02T05:21:38.416Z,12.84
2019-05-02T05:26:47.666Z,12.94
2019-05-02T05:31:55.193Z,13.02
2019-05-02T05:37:03.505Z,13.13
2019-05-02T05:42:10.321Z,13.23
2019-05-02T05:47:17.686Z,13.33
2019-05-02T05:52:21.916Z,13.45
2019-05-02T05:57:27.976Z,13.54
2019-05-02T06:02:50.081Z,13.64
2019-05-02T06:07:43.372Z,13.75
2019-05-02T06:12:47.808Z,13.83
2019-05-02T06:17:53.343Z,13.88
2019-05-02T06:22:59.964Z,13.97
2019-05-02T06:28:06.782Z,14.08
2019-05-02T06:33:12.467Z,14.14
2019-05-02T06:38:21.665Z,14.26
2019-05-02T06:43:25.059Z,14.36
2019-05-02T06:48:30.618Z,14.43
2019-05-02T06:53:36.149Z,14.58
2019-05-02T06:58:43.230Z,14.68
2019-05-02T07:03:48.884Z,14.84
2019-05-02T07:08:54.377Z,14.96
2019-05-02T07:14:12.407Z,15.12
2019-05-02T07:19:27.517Z,15.36
2019-05-02T07:24:31.120Z,15.54
2019-05-02T07:29:37.509Z,15.68
2019-05-02T07:34:44.291Z,15.82
2019-05-02T07:39:50.223Z,15.92
2019-05-02T07:44:55.721Z,16.01
2019-05-02T07:50:05.252Z,16.14
2019-05-02T07:55:10.149Z,16.30
2019-05-02T08:00:15.728Z,16.49
2019-05-02T08:05:23.695Z,16.65
2019-05-02T08:10:28.370Z,16.82
2019-05-02T08:15:33.845Z,17.03
2019-05-02T08:20:39.471Z,17.17
2019-05-02T08:25:45.387Z,17.62
2019-05-02T08:30:55.351Z,18.19
2019-05-02T08:36:00.776Z,18.87
2019-05-02T08:41:06.208Z,19.32
2019-05-02T08:46:14.476Z,20.23
2019-05-02T08:51:19.025Z,24.76
2019-05-02T08:56:24.522Z,28.95
2019-05-02T09:01:35.357Z,32.68
2019-05-02T09:06:37.551Z,33.45
2019-05-02T09:11:48.232Z,32.15
2019-05-02T09:16:52.336Z,32.28
2019-05-02T09:21:58.258Z,32.59
2019-05-02T09:27:03.961Z,32.31
2019-05-02T09:32:09.952Z,31.20
2019-05-02T09:37:15.731Z,33.22
2019-05-02T09:42:21.775Z,33.49
2019-05-02T09:47:32.427Z,32.56
2019-05-02T09:52:39.682Z,31.45
2019-05-02T09:57:42.869Z,30.19
2019-05-02T10:02:48.406Z,29.44
2019-05-02T10:07:57.576Z,28.77
2019-05-02T10:13:02.802Z,28.32
2019-05-02T10:18:12.084Z,28.13
2019-05-02T10:23:19.623Z,27.67
2019-05-02T10:28:23.836Z,27.26
2019-05-02T10:33:33.689Z,26.91
2019-05-02T10:38:36.689Z,26.35
2019-05-02T10:43:42.441Z,25.93
2019-05-02T10:48:57.254Z,25.72
2019-05-02T10:54:03.107Z,25.48
2019-05-02T10:59:08.600Z,25.52
2019-05-02T11:04:15.640Z,25.30
2019-05-02T11:09:22.578Z,25.06
2019-05-02T11:14:43.003Z,25.06
2019-05-02T11:19:52.342Z,24.76
2019-05-02T11:24:57.973Z,24.56
2019-05-02T11:30:03.540Z,24.47
2019-05-02T11:35:12.183Z,24.64
2019-05-02T11:40:17.787Z,24.90
2019-05-02T11:45:23.960Z,25.10
2019-05-02T11:50:31.900Z,25.13
2019-05-02T11:55:36.855Z,25.18
2019-05-02T12:00:45.430Z,25.25
2019-05-02T12:05:52.187Z,25.12
2019-05-02T12:10:57.402Z,25.14
2019-05-02T12:16:03.944Z,25.01
2019-05-02T12:21:09.549Z,24.74
2019-05-02T12:26:15.346Z,24.65
2019-05-02T12:31:28.020Z,24.78
2019-05-02T12:36:33.621Z,24.93
2019-05-02T12:41:39.045Z,25.12
2019-05-02T12:46:44.523Z,25.04
2019-05-02T12:51:50.055Z,24.73
2019-05-02T12:56:55.545Z,24.52
2019-05-02T13:02:02.712Z,24.64
2019-05-02T13:07:08.221Z,24.60
2019-05-02T13:12:18.323Z,24.42
2019-05-02T13:17:23.806Z,24.35
2019-05-02T13:22:54.341Z,24.38
2019-05-02T13:28:01.836Z,24.46
2019-05-02T13:33:09.606Z,24.66
2019-05-02T13:38:17.860Z,24.75
2019-05-02T13:43:26.271Z,24.82
2019-05-02T13:48:32.375Z,24.85
2019-05-02T13:53:43.886Z,24.90
2019-05-02T13:58:49.555Z,25.03
2019-05-02T14:03:55.824Z,25.17
2019-05-02T14:09:22.504Z,25.20
2019-05-02T14:14:27.603Z,25.07
2019-05-02T14:19:33.158Z,24.83
2019-05-02T14:24:38.618Z,24.47
2019-05-02T14:29:44.239Z,24.19
2019-05-02T14:35:04.738Z,24.11
2019-05-02T14:40:20.201Z,24.01
2019-05-02T14:45:30.874Z,23.78
2019-05-02T14:50:36.548Z,23.36
2019-05-02T14:55:42.252Z,22.90
2019-05-02T15:00:49.394Z,22.54
2019-05-02T15:05:59.087Z,22.28
2019-05-02T15:11:03.450Z,21.98
2019-05-02T15:16:10.470Z,21.76
2019-05-02T15:21:22.636Z,21.63
2019-05-02T15:26:31.271Z,21.56
2019-05-02T15:31:37.135Z,21.54
2019-05-02T15:36:45.837Z,21.56
2019-05-02T15:41:49.946Z,21.55
2019-05-02T15:46:58.438Z,21.53
2019-05-02T15:52:03.144Z,21.46
2019-05-02T15:57:08.681Z,21.10
2019-05-02T16:02:21.889Z,20.53
2019-05-02T16:07:24.809Z,19.50
2019-05-02T16:12:32.165Z,18.63
2019-05-02T16:17:37.556Z,18.06
2019-05-02T16:22:46.407Z,17.68
2019-05-02T16:27:50.354Z,17.41
2019-05-02T16:33:00.148Z,17.20
2019-05-02T16:38:05.867Z,17.11
2019-05-02T16:43:12.169Z,17.00
2019-05-02T16:48:17.825Z,16.93
2019-05-02T16:53:26.102Z,16.86
2019-05-02T16:58:33.373Z,16.77
2019-05-02T17:03:38.267Z,16.66
2019-05-02T17:08:57.449Z,16.63
2019-05-02T17:14:02.234Z,16.57
2019-05-02T17:19:07.914Z,16.51
2019-05-02T17:24:17.288Z,16.45
2019-05-02T17:29:21.339Z,16.39
2019-05-02T17:34:32.487Z,16.36
2019-05-02T17:39:37.333Z,16.32
2019-05-02T17:44:43.840Z,16.28
2019-05-02T17:49:50.042Z,16.28
2019-05-02T17:54:57.367Z,16.27
2019-05-02T18:00:02.991Z,16.24
2019-05-02T18:05:08.492Z,16.22
2019-05-02T18:10:19.329Z,16.19
2019-05-02T18:15:22.807Z,16.14
2019-05-02T18:20:28.385Z,16.05
2019-05-02T18:25:33.856Z,15.99
2019-05-02T18:30:39.430Z,15.92
2019-05-02T18:35:46.912Z,15.84
2019-05-02T18:40:53.008Z,15.76
2019-05-02T18:46:06.010Z,15.70
2019-05-02T18:51:07.122Z,15.63
2019-05-02T18:56:12.645Z,15.58
2019-05-02T19:01:20.858Z,15.55
2019-05-02T19:06:27.891Z,15.50
2019-05-02T19:11:35.290Z,15.45
2019-05-02T19:16:39.781Z,15.38
2019-05-02T19:21:45.483Z,15.33
2019-05-02T19:26:53.386Z,15.29
2019-05-02T19:31:58.726Z,15.24
2019-05-02T19:37:04.652Z,15.19
2019-05-02T19:42:12.155Z,15.16
2019-05-02T19:47:17.781Z,15.14
2019-05-02T19:52:23.461Z,15.13
2019-05-02T19:57:29.058Z,15.13
2019-05-02T20:02:37.427Z,15.12
2019-05-02T20:07:42.642Z,15.10
2019-05-02T20:12:50.453Z,15.07
2019-05-02T20:18:00.570Z,15.04
2019-05-02T20:23:15.140Z,15.02
2019-05-02T20:28:10.506Z,15.01
2019-05-02T20:33:15.959Z,14.99
2019-05-02T20:38:22.104Z,14.99
2019-05-02T20:43:27.767Z,14.97
2019-05-02T20:48:33.690Z,14.89
2019-05-02T20:53:39.270Z,14.81
2019-05-02T20:58:44.991Z,14.75
2019-05-02T21:03:52.113Z,14.71
2019-05-02T21:09:09.123Z,14.67
2019-05-02T21:14:14.772Z,14.62
2019-05-02T21:19:21.738Z,14.56
2019-05-02T21:24:27.335Z,14.47
2019-05-02T21:29:32.864Z,14.38
2019-05-02T21:34:38.328Z,14.30
2019-05-02T21:39:43.784Z,14.19
2019-05-02T21:44:49.289Z,14.01
2019-05-02T21:50:04.559Z,13.75
2019-05-02T21:55:17.333Z,13.44
2019-05-02T22:00:42.136Z,13.12
2019-05-02T22:05:47.783Z,12.80
2019-05-02T22:10:53.231Z,12.53
2019-05-02T22:15:58.679Z,12.31
2019-05-02T22:21:04.194Z,12.15
2019-05-02T22:26:09.703Z,12.07
2019-05-02T22:31:15.184Z,11.95
2019-05-02T22:36:21.803Z,11.79
2019-05-02T22:41:27.250Z,11.72
2019-05-02T22:46:43.723Z,11.76
2019-05-02T22:51:49.285Z,11.83
2019-05-02T22:56:54.785Z,11.88
2019-05-02T23:02:01.986Z,11.87
2019-05-02T23:07:07.638Z,11.90
2019-05-02T23:12:13.228Z,11.90
2019-05-02T23:17:18.852Z,11.77
2019-05-02T23:22:24.316Z,11.66
2019-05-02T23:27:54.696Z,11.64
2019-05-02T23:33:02.195Z,11.69
2019-05-02T23:38:07.566Z,11.77
2019-05-02T23:43:13.039Z,11.89
2019-05-02T23:48:18.436Z,12.02
2019-05-02T23:53:23.859Z,12.14
2019-05-02T23:58:29.283Z,12.24
